Accueil
METAR-TAF:

METAR-TAF

Aéroports :

Hachinohe, Japon

latitude: 40-33N, longitude: 141-28E, altitude: 46 m

Observation

Le bulletin a été fait il y a 8 heures et 3 minutes, à 13:53 UTC
Vent 4 kt de ouest
Température -2°C
Humidité 100%
Pression 1021 hPa
Visibilité: 5000 m
Quelques nuages à une hauteur de 1500 ft
Nuages fragmentés à une hauteur de 2500 ft
Nuages fragmentés à une hauteur de 5000 ft
faibles averses de neige

METAR: RJSH 271353Z 28004KT 5000 -SHSN FEW015 BKN025 BKN050 M02/M02 Q1021 RMK 2CU015 5CU025 7SC050 A3016

Heure: 06:56 (21:56 UTC)


TAF: absent

Observations et prévisions météorologiques de plus de 4000 aéroports (messages METAR et TAF).

Les stations disponibles sont représentées par des disques jaunes et rouges sur la carte.

Passer la souris dessus pour voir le nom de la station.

Cliquer dessus pour voir les observations et prévisions météorologiques.

Pour changer de carte: cliquez sur les boutons verts avec une croix noire pour zoomer, sur le bouton vert avec un tiret pour effectuer un zoom arrière, ou sur les flèches vertes pour les cartes adjacentes.


METAR-TAF: